createdAt,value
2018-03-20T00:01:54.272Z,101054.73
2018-03-20T00:04:20.274Z,101052.50
2018-03-20T00:06:46.355Z,101058.62
2018-03-20T00:09:12.304Z,101058.20
2018-03-20T00:11:38.402Z,101063.10
2018-03-20T00:14:04.419Z,101067.47
2018-03-20T00:16:30.425Z,101066.96
2018-03-20T00:18:56.476Z,101063.08
2018-03-20T00:21:22.587Z,101062.81
2018-03-20T00:23:48.600Z,101060.27
2018-03-20T00:26:14.613Z,101064.27
2018-03-20T00:28:40.603Z,101064.62
2018-03-20T00:31:06.633Z,101062.95
2018-03-20T00:33:32.607Z,101069.95
2018-03-20T00:35:58.602Z,101066.86
2018-03-20T00:38:24.576Z,101064.09
2018-03-20T00:40:50.529Z,101068.22
2018-03-20T00:43:16.510Z,101069.22
2018-03-20T00:45:42.558Z,101068.14
2018-03-20T00:48:08.511Z,101076.03
2018-03-20T00:50:34.461Z,101075.54
2018-03-20T00:53:00.470Z,101077.66
2018-03-20T00:55:26.422Z,101080.81
2018-03-20T00:57:52.378Z,101076.55
2018-03-20T01:00:18.337Z,101084.45
2018-03-20T01:02:44.301Z,101078.92
2018-03-20T01:05:10.271Z,101085.72
2018-03-20T01:07:36.369Z,101091.67
2018-03-20T01:10:02.326Z,101089.83
2018-03-20T01:12:28.319Z,101081.77
2018-03-20T01:14:54.300Z,101081.75
2018-03-20T01:17:20.286Z,101083.95
2018-03-20T01:19:46.239Z,101081.34
2018-03-20T01:22:12.202Z,101077.97
2018-03-20T01:24:38.153Z,101080.89
2018-03-20T01:27:04.118Z,101084.74
2018-03-20T01:29:30.121Z,101089.70
2018-03-20T01:31:56.074Z,101084.02
2018-03-20T01:34:22.064Z,101091.46
2018-03-20T01:36:48.046Z,101093.53
2018-03-20T01:39:13.994Z,101089.17
2018-03-20T01:41:39.973Z,101092.41
2018-03-20T01:44:05.917Z,101080.97
2018-03-20T01:46:31.897Z,101079.55
2018-03-20T01:48:57.847Z,101079.44
2018-03-20T01:51:23.807Z,101087.06
2018-03-20T01:53:49.795Z,101088.00
2018-03-20T01:56:15.767Z,101087.40
2018-03-20T01:58:41.758Z,101089.25
2018-03-20T02:01:07.715Z,101093.75
2018-03-20T02:03:33.669Z,101080.59
2018-03-20T02:05:59.628Z,101084.30
2018-03-20T02:08:25.622Z,101083.97
2018-03-20T02:10:51.581Z,101086.82
2018-03-20T02:13:17.558Z,101086.45
2018-03-20T02:15:43.518Z,101087.55
2018-03-20T02:18:09.476Z,101081.23
2018-03-20T02:20:35.441Z,101082.72
2018-03-20T02:23:01.401Z,101081.86
2018-03-20T02:25:27.378Z,101085.38
2018-03-20T02:27:53.334Z,101094.00
2018-03-20T02:30:19.294Z,101084.09
2018-03-20T02:32:45.249Z,101078.50
2018-03-20T02:35:11.206Z,101081.08
2018-03-20T02:37:37.181Z,101090.59
2018-03-20T02:40:03.167Z,101092.49
2018-03-20T02:42:29.123Z,101089.69
2018-03-20T02:44:55.097Z,101093.25
2018-03-20T02:47:21.048Z,101085.43
2018-03-20T02:49:47.025Z,101073.50
2018-03-20T02:52:12.994Z,101080.98
2018-03-20T02:54:38.982Z,101088.37
2018-03-20T02:57:04.948Z,101087.84
2018-03-20T02:59:30.904Z,101092.12
2018-03-20T03:01:56.900Z,101098.09
2018-03-20T03:04:22.850Z,101096.03
2018-03-20T03:06:48.799Z,101099.19
2018-03-20T03:09:14.757Z,101100.81
2018-03-20T03:11:40.710Z,101088.03
2018-03-20T03:14:06.661Z,101094.91
2018-03-20T03:16:32.615Z,101095.39
2018-03-20T03:18:58.567Z,101092.49
2018-03-20T03:21:24.530Z,101089.38
2018-03-20T03:23:50.520Z,101083.28
2018-03-20T03:26:16.486Z,101088.86
2018-03-20T03:28:42.434Z,101083.63
2018-03-20T03:31:08.387Z,101076.75
2018-03-20T03:33:34.372Z,101079.39
2018-03-20T03:36:00.329Z,101072.64
2018-03-20T03:38:26.277Z,101071.98
2018-03-20T03:40:52.234Z,101057.16
2018-03-20T03:43:18.187Z,101043.42
2018-03-20T03:45:44.141Z,101030.70
2018-03-20T03:48:10.102Z,101031.40
2018-03-20T03:50:36.066Z,101062.08
2018-03-20T03:53:02.039Z,101075.06
2018-03-20T03:55:27.982Z,101073.77
2018-03-20T03:57:53.926Z,101092.34
2018-03-20T04:00:19.910Z,101089.55
2018-03-20T04:02:45.870Z,101084.43
2018-03-20T04:05:11.870Z,101089.19
2018-03-20T04:07:37.856Z,101083.63
2018-03-20T04:10:03.832Z,101089.91
2018-03-20T04:12:29.815Z,101088.12
2018-03-20T04:14:55.774Z,101088.66
2018-03-20T04:17:21.768Z,101086.38
2018-03-20T04:19:47.730Z,101080.32
2018-03-20T04:22:13.683Z,101080.52
2018-03-20T04:24:39.646Z,101080.36
2018-03-20T04:27:05.589Z,101084.45
2018-03-20T04:29:31.573Z,101077.43
2018-03-20T04:31:57.574Z,101079.66
2018-03-20T04:34:23.543Z,101082.84
2018-03-20T04:36:49.515Z,101075.06
2018-03-20T04:39:15.490Z,101072.29
2018-03-20T04:41:41.532Z,101068.08
2018-03-20T04:44:07.491Z,101065.89
2018-03-20T04:46:33.545Z,101061.41
2018-03-20T04:48:59.511Z,101063.62
2018-03-20T04:51:25.468Z,101064.34
2018-03-20T04:53:51.458Z,101070.00
2018-03-20T04:56:17.406Z,101069.00
2018-03-20T04:58:43.375Z,101067.14
2018-03-20T05:01:09.390Z,101070.24
2018-03-20T05:03:35.362Z,101071.02
2018-03-20T05:06:01.417Z,101075.59
2018-03-20T05:08:27.387Z,101079.02
2018-03-20T05:10:53.338Z,101079.33
2018-03-20T05:13:19.302Z,101072.52
2018-03-20T05:15:45.290Z,101079.00
2018-03-20T05:18:11.247Z,101070.45
2018-03-20T05:20:37.219Z,101073.23
2018-03-20T05:23:03.171Z,101080.70
2018-03-20T05:25:29.130Z,101077.43
2018-03-20T05:27:55.098Z,101087.80
2018-03-20T05:30:21.051Z,101089.59
2018-03-20T05:32:47.007Z,101089.33
2018-03-20T05:35:12.965Z,101084.30
2018-03-20T05:37:38.922Z,101075.91
2018-03-20T05:40:04.885Z,101076.09
2018-03-20T05:42:30.857Z,101080.58
2018-03-20T05:44:56.816Z,101089.59
2018-03-20T05:47:22.774Z,101088.14
2018-03-20T05:49:48.762Z,101087.87
2018-03-20T05:52:14.709Z,101090.69
2018-03-20T05:54:40.674Z,101090.98
2018-03-20T05:57:06.624Z,101089.27
2018-03-20T05:59:32.609Z,101087.77
2018-03-20T06:01:58.582Z,101091.75
2018-03-20T06:04:24.569Z,101091.37
2018-03-20T06:06:50.538Z,101094.86
2018-03-20T06:09:16.489Z,101098.87
2018-03-20T06:11:42.455Z,101100.20
2018-03-20T06:14:08.394Z,101097.65
2018-03-20T06:16:34.346Z,101096.90
2018-03-20T06:19:00.325Z,101091.08
2018-03-20T06:21:26.294Z,101094.70
2018-03-20T06:23:52.257Z,101101.17
2018-03-20T06:26:18.222Z,101109.56
2018-03-20T06:28:44.186Z,101112.19
2018-03-20T06:31:10.146Z,101114.23
2018-03-20T06:33:36.126Z,101116.34
2018-03-20T06:36:02.081Z,101121.52
2018-03-20T06:38:28.047Z,101120.48
2018-03-20T06:40:54.014Z,101126.52
2018-03-20T06:43:19.965Z,101139.48
2018-03-20T06:45:45.918Z,101138.36
2018-03-20T06:48:11.917Z,101135.23
2018-03-20T06:50:37.883Z,101147.09
2018-03-20T06:53:03.826Z,101146.34
2018-03-20T06:55:29.819Z,101152.79
2018-03-20T06:57:55.792Z,101157.35
2018-03-20T07:00:21.742Z,101157.20
2018-03-20T07:02:47.707Z,101162.05
2018-03-20T07:05:13.667Z,101162.80
2018-03-20T07:07:39.641Z,101168.21
2018-03-20T07:10:05.594Z,101169.02
2018-03-20T07:12:31.587Z,101173.34
2018-03-20T07:14:57.550Z,101167.29
2018-03-20T07:17:23.520Z,101173.22
2018-03-20T07:19:49.485Z,101176.77
2018-03-20T07:22:15.456Z,101179.39
2018-03-20T07:24:41.422Z,101169.70
2018-03-20T07:27:07.405Z,101177.36
2018-03-20T07:29:33.349Z,101175.09
2018-03-20T07:31:59.335Z,101177.22
2018-03-20T07:34:25.324Z,101173.68
2018-03-20T07:36:51.284Z,101179.27
2018-03-20T07:39:17.240Z,101186.08
2018-03-20T07:41:43.199Z,101183.19
2018-03-20T07:44:09.166Z,101178.78
2018-03-20T07:46:35.121Z,101176.56
2018-03-20T07:49:01.098Z,101184.57
2018-03-20T07:51:27.070Z,101181.33
2018-03-20T07:53:53.053Z,101182.20
2018-03-20T07:56:19.016Z,101181.86
2018-03-20T07:58:44.967Z,101180.76
2018-03-20T08:01:10.941Z,101191.59
2018-03-20T08:03:36.902Z,101192.72
2018-03-20T08:06:02.857Z,101197.48
2018-03-20T08:08:28.801Z,101195.00
2018-03-20T08:10:54.763Z,101202.28
2018-03-20T08:13:20.758Z,101202.21
2018-03-20T08:15:46.726Z,101207.92
2018-03-20T08:18:12.707Z,101205.42
2018-03-20T08:20:38.662Z,101203.95
2018-03-20T08:23:04.641Z,101206.89
2018-03-20T08:25:30.598Z,101215.05
2018-03-20T08:27:56.549Z,101210.77
2018-03-20T08:30:22.554Z,101220.55
2018-03-20T08:32:48.535Z,101228.89
2018-03-20T08:35:14.513Z,101229.64
2018-03-20T08:37:40.485Z,101232.14
2018-03-20T08:40:06.435Z,101244.15
2018-03-20T08:42:32.396Z,101250.51
2018-03-20T08:44:58.433Z,101259.34
2018-03-20T08:47:24.406Z,101264.09
2018-03-20T08:49:50.397Z,101262.29
2018-03-20T08:52:16.371Z,101270.54
2018-03-20T08:54:42.367Z,101270.44
2018-03-20T08:57:08.317Z,101273.10
2018-03-20T08:59:34.337Z,101271.00
2018-03-20T09:02:00.297Z,101276.69
2018-03-20T09:04:26.247Z,101274.47
2018-03-20T09:06:52.228Z,101277.83
2018-03-20T09:09:18.187Z,101273.11
2018-03-20T09:11:44.145Z,101276.98
2018-03-20T09:14:10.133Z,101272.61
2018-03-20T09:16:36.086Z,101273.66
2018-03-20T09:19:02.040Z,101276.70
2018-03-20T09:21:28.009Z,101278.36
2018-03-20T09:23:53.961Z,101285.98
2018-03-20T09:26:19.944Z,101287.03
2018-03-20T09:28:45.966Z,101287.94
2018-03-20T09:31:11.939Z,101296.75
2018-03-20T09:33:37.905Z,101299.50
2018-03-20T09:36:03.869Z,101300.67
2018-03-20T09:38:29.830Z,101298.78
2018-03-20T09:40:55.803Z,101296.00
2018-03-20T09:43:21.756Z,101300.75
2018-03-20T09:45:47.802Z,101300.97
2018-03-20T09:48:13.768Z,101300.42
2018-03-20T09:50:39.744Z,101301.05
2018-03-20T09:53:05.744Z,101306.00
2018-03-20T09:55:31.725Z,101311.33
2018-03-20T09:57:57.705Z,101318.21
2018-03-20T10:00:23.710Z,101311.50
2018-03-20T10:02:49.678Z,101315.31
2018-03-20T10:05:15.629Z,101323.64
2018-03-20T10:07:41.605Z,101322.16
2018-03-20T10:10:07.577Z,101328.81
2018-03-20T10:12:33.562Z,101325.16
2018-03-20T10:14:59.540Z,101330.84
2018-03-20T10:17:25.507Z,101332.17
2018-03-20T10:19:51.458Z,101335.59
2018-03-20T10:22:17.438Z,101341.09
2018-03-20T10:24:43.402Z,101339.29
2018-03-20T10:27:09.358Z,101351.23
2018-03-20T10:29:35.325Z,101350.30
2018-03-20T10:32:01.336Z,101355.79
2018-03-20T10:34:27.262Z,101352.70
2018-03-20T10:36:53.278Z,101352.67
2018-03-20T10:39:19.238Z,101360.88
2018-03-20T10:41:45.206Z,101355.98
2018-03-20T10:44:11.153Z,101354.81
2018-03-20T10:46:37.142Z,101358.22
2018-03-20T10:49:03.139Z,101357.73
2018-03-20T10:51:29.061Z,101364.22
2018-03-20T10:53:55.022Z,101369.57
2018-03-20T10:56:21.006Z,101364.00
2018-03-20T10:58:46.977Z,101369.62
2018-03-20T11:01:12.957Z,101366.67
2018-03-20T11:03:38.932Z,101363.55
2018-03-20T11:06:04.894Z,101368.91
2018-03-20T11:08:30.862Z,101375.38
2018-03-20T11:10:56.830Z,101372.63
2018-03-20T11:13:22.741Z,101380.58
2018-03-20T11:15:48.698Z,101374.09
2018-03-20T11:18:14.670Z,101369.55
2018-03-20T11:20:40.632Z,101376.33
2018-03-20T11:23:06.581Z,101380.05
2018-03-20T11:25:32.554Z,101374.17
2018-03-20T11:27:58.509Z,101379.00
2018-03-20T11:30:24.464Z,101379.86
2018-03-20T11:32:50.441Z,101386.56
2018-03-20T11:35:16.401Z,101378.53
2018-03-20T11:37:42.343Z,101390.75
2018-03-20T11:40:08.409Z,101389.58
2018-03-20T11:42:34.374Z,101388.83
2018-03-20T11:45:00.339Z,101389.16
2018-03-20T11:47:26.302Z,101392.22
2018-03-20T11:49:52.260Z,101387.28
2018-03-20T11:52:18.222Z,101394.62
2018-03-20T11:54:44.174Z,101386.38
2018-03-20T11:57:10.148Z,101392.89
2018-03-20T11:59:36.102Z,101389.59
2018-03-20T12:02:02.090Z,101392.89
2018-03-20T12:04:28.074Z,101391.32
2018-03-20T12:06:54.025Z,101395.77
2018-03-20T12:09:20.057Z,101395.69
2018-03-20T12:11:46.073Z,101389.97
2018-03-20T12:14:12.011Z,101402.92
2018-03-20T12:16:37.967Z,101395.69
2018-03-20T12:19:03.915Z,101391.12
2018-03-20T12:21:29.910Z,101399.83
2018-03-20T12:23:55.861Z,101406.68
2018-03-20T12:26:21.836Z,101399.50
2018-03-20T12:28:47.802Z,101412.25
2018-03-20T12:31:13.757Z,101402.01
2018-03-20T12:33:39.854Z,101407.33
2018-03-20T12:36:05.802Z,101404.02
2018-03-20T12:38:31.790Z,101407.11
2018-03-20T12:40:57.789Z,101409.52
2018-03-20T12:43:23.727Z,101408.16
2018-03-20T12:45:49.707Z,101413.54
2018-03-20T12:48:15.722Z,101410.08
2018-03-20T12:50:41.687Z,101413.24
2018-03-20T12:53:07.653Z,101411.35
2018-03-20T12:55:33.630Z,101404.34
2018-03-20T12:57:59.607Z,101417.23
2018-03-20T13:00:25.588Z,101419.19
2018-03-20T13:02:51.564Z,101419.61
2018-03-20T13:05:17.570Z,101424.44
2018-03-20T13:07:43.670Z,101419.46
2018-03-20T13:10:09.656Z,101437.21
2018-03-20T13:12:35.625Z,101426.39
2018-03-20T13:15:01.595Z,101426.55
2018-03-20T13:17:27.595Z,101429.60
2018-03-20T13:19:53.594Z,101425.38
2018-03-20T13:22:19.594Z,101430.35
2018-03-20T13:24:45.554Z,101428.69
2018-03-20T13:27:11.516Z,101432.69
2018-03-20T13:29:37.480Z,101443.20
2018-03-20T13:32:03.441Z,101446.27
2018-03-20T13:34:29.410Z,101449.33
2018-03-20T13:36:55.381Z,101448.42
2018-03-20T13:39:21.346Z,101450.98
2018-03-20T13:41:47.325Z,101448.16
2018-03-20T13:44:13.291Z,101443.17
2018-03-20T13:46:39.292Z,101439.98
2018-03-20T13:49:05.265Z,101437.34
2018-03-20T13:51:31.240Z,101450.30
2018-03-20T13:53:57.207Z,101452.34
2018-03-20T13:56:23.203Z,101473.25
2018-03-20T13:58:49.149Z,101451.48
2018-03-20T14:01:15.127Z,101459.52
2018-03-20T14:03:41.110Z,101455.58
2018-03-20T14:06:07.092Z,101459.69
2018-03-20T14:08:33.115Z,101460.06
2018-03-20T14:10:59.095Z,101460.87
2018-03-20T14:13:25.074Z,101460.22
2018-03-20T14:15:51.074Z,101463.77
2018-03-20T14:18:17.059Z,101458.19
2018-03-20T14:20:43.043Z,101470.92
2018-03-20T14:23:09.022Z,101473.08
2018-03-20T14:25:34.995Z,101480.80
2018-03-20T14:30:38.852Z,101489.48
2018-03-20T14:33:04.849Z,101487.26
2018-03-20T14:35:30.826Z,101479.23
2018-03-20T14:37:56.798Z,101489.89
2018-03-20T14:40:22.779Z,101496.33
2018-03-20T14:42:48.723Z,101511.66
2018-03-20T14:45:14.719Z,101505.72
2018-03-20T14:47:40.663Z,101513.70
2018-03-20T14:50:06.762Z,101508.61
2018-03-20T14:52:32.753Z,101512.99
2018-03-20T14:54:58.729Z,101512.31
2018-03-20T14:57:24.691Z,101512.76
2018-03-20T14:59:50.662Z,101521.80
2018-03-20T15:02:16.631Z,101521.20
2018-03-20T15:04:42.591Z,101539.70
2018-03-20T15:07:08.551Z,101532.52
2018-03-20T15:09:34.530Z,101535.39
2018-03-20T15:12:00.505Z,101537.81
2018-03-20T15:14:26.508Z,101548.11
2018-03-20T15:16:52.704Z,101552.34
2018-03-20T15:19:18.716Z,101554.05
2018-03-20T15:21:44.719Z,101563.45
2018-03-20T15:24:10.728Z,101562.43
2018-03-20T15:26:36.721Z,101559.90
2018-03-20T15:29:02.679Z,101570.41
2018-03-20T15:31:28.698Z,101569.62
2018-03-20T15:33:54.677Z,101580.30
2018-03-20T15:36:20.648Z,101577.34
2018-03-20T15:38:46.731Z,101581.50
2018-03-20T15:41:12.706Z,101585.02
2018-03-20T15:43:38.664Z,101584.12
2018-03-20T15:46:04.710Z,101586.41
2018-03-20T15:48:30.711Z,101584.78
2018-03-20T15:50:56.678Z,101590.47
2018-03-20T15:53:22.651Z,101593.41
2018-03-20T15:55:48.623Z,101593.70
2018-03-20T15:58:14.643Z,101591.54
2018-03-20T16:00:40.583Z,101596.52
2018-03-20T16:03:06.622Z,101604.30
2018-03-20T16:05:32.704Z,101604.61
2018-03-20T16:07:58.637Z,101614.02
2018-03-20T16:10:24.723Z,101618.46
2018-03-20T16:12:50.690Z,101625.11
2018-03-20T16:15:16.685Z,101634.11
2018-03-20T16:17:42.648Z,101638.16
2018-03-20T16:20:08.593Z,101637.02
2018-03-20T16:22:34.554Z,101637.41
2018-03-20T16:25:00.525Z,101650.51
2018-03-20T16:27:26.514Z,101647.65
2018-03-20T16:29:52.495Z,101649.04
2018-03-20T16:32:18.509Z,101657.10
2018-03-20T16:34:44.490Z,101659.16
2018-03-20T16:37:10.469Z,101656.87
2018-03-20T16:39:36.474Z,101667.24
2018-03-20T16:42:02.465Z,101677.55
2018-03-20T16:44:28.450Z,101682.75
2018-03-20T16:46:54.418Z,101687.19
2018-03-20T16:49:20.399Z,101683.26
2018-03-20T16:51:46.382Z,101695.30
2018-03-20T16:54:12.359Z,101698.52
2018-03-20T16:56:38.511Z,101704.05
2018-03-20T16:59:04.491Z,101708.41
2018-03-20T17:01:30.496Z,101710.63
2018-03-20T17:03:56.484Z,101712.30
2018-03-20T17:06:22.486Z,101716.22
2018-03-20T17:08:48.450Z,101721.02
2018-03-20T17:11:14.424Z,101722.40
2018-03-20T17:13:40.406Z,101724.34
2018-03-20T17:16:06.380Z,101726.39
2018-03-20T17:18:32.390Z,101731.42
2018-03-20T17:20:58.528Z,101734.23
2018-03-20T17:23:24.498Z,101734.55
2018-03-20T17:25:50.479Z,101745.37
2018-03-20T17:28:16.451Z,101743.11
2018-03-20T17:30:42.422Z,101746.76
2018-03-20T17:33:08.421Z,101752.86
2018-03-20T17:35:34.370Z,101762.52
2018-03-20T17:38:00.377Z,101749.53
2018-03-20T17:40:26.359Z,101761.61
2018-03-20T17:42:52.327Z,101765.36
2018-03-20T17:45:18.290Z,101765.01
2018-03-20T17:47:44.359Z,101775.24
2018-03-20T17:50:10.338Z,101774.27
2018-03-20T17:52:36.314Z,101781.45
2018-03-20T17:55:02.287Z,101790.68
2018-03-20T17:57:28.260Z,101797.41
2018-03-20T17:59:54.323Z,101804.25
2018-03-20T18:02:20.294Z,101806.64
2018-03-20T18:04:46.263Z,101813.64
2018-03-20T18:07:12.298Z,101822.15
2018-03-20T18:09:38.286Z,101827.33
2018-03-20T18:12:04.262Z,101824.72
2018-03-20T18:14:30.239Z,101828.39
2018-03-20T18:16:56.223Z,101828.91
2018-03-20T18:19:22.213Z,101831.20
2018-03-20T18:21:48.209Z,101834.85
2018-03-20T18:24:14.173Z,101847.17
2018-03-20T18:26:40.144Z,101841.27
2018-03-20T18:29:06.118Z,101851.47
2018-03-20T18:31:32.086Z,101853.10
2018-03-20T18:33:58.094Z,101860.36
2018-03-20T18:36:24.109Z,101868.96
2018-03-20T18:38:50.191Z,101870.00
2018-03-20T18:41:16.209Z,101877.44
2018-03-20T18:43:42.214Z,101876.20
2018-03-20T18:46:08.167Z,101878.58
2018-03-20T18:48:34.131Z,101881.56
2018-03-20T18:51:00.095Z,101893.28
2018-03-20T18:53:26.092Z,101890.13
2018-03-20T18:55:52.088Z,101891.72
2018-03-20T18:58:18.086Z,101897.13
2018-03-20T19:00:44.053Z,101899.51
2018-03-20T19:03:10.015Z,101903.89
2018-03-20T19:05:36.029Z,101903.41
2018-03-20T19:08:02.006Z,101909.66
2018-03-20T19:10:27.976Z,101912.61
2018-03-20T19:12:53.934Z,101921.67
2018-03-20T19:15:19.926Z,101923.16
2018-03-20T19:17:45.932Z,101930.00
2018-03-20T19:20:11.932Z,101932.42
2018-03-20T19:22:37.894Z,101938.84
2018-03-20T19:25:03.896Z,101943.92
2018-03-20T19:27:29.872Z,101950.11
2018-03-20T19:29:55.866Z,101956.08
2018-03-20T19:32:21.847Z,101959.17
2018-03-20T19:34:47.811Z,101963.96
2018-03-20T19:37:13.811Z,101971.05
2018-03-20T19:39:39.782Z,101975.58
2018-03-20T19:42:05.740Z,101978.31
2018-03-20T19:44:31.744Z,101981.78
2018-03-20T19:46:57.707Z,101984.48
2018-03-20T19:49:23.676Z,101988.86
2018-03-20T19:51:49.649Z,101994.55
2018-03-20T19:54:15.630Z,102000.25
2018-03-20T19:56:41.693Z,102000.05
2018-03-20T19:59:07.687Z,102006.84
2018-03-20T20:01:33.690Z,102012.66
2018-03-20T20:03:59.660Z,102014.13
2018-03-20T20:06:25.640Z,102018.86
2018-03-20T20:08:51.597Z,102021.91
2018-03-20T20:11:17.577Z,102028.51
2018-03-20T20:13:43.570Z,102031.21
2018-03-20T20:16:09.551Z,102031.66
2018-03-20T20:18:35.566Z,102031.81
2018-03-20T20:21:01.549Z,102037.41
2018-03-20T20:23:27.539Z,102038.47
2018-03-20T20:25:53.516Z,102041.34
2018-03-20T20:28:19.493Z,102044.30
2018-03-20T20:30:45.443Z,102048.02
2018-03-20T20:33:11.416Z,102049.66
2018-03-20T20:35:37.406Z,102051.91
2018-03-20T20:38:03.386Z,102064.78
2018-03-20T20:40:31.699Z,102063.94
2018-03-20T20:42:57.654Z,102067.84
2018-03-20T20:45:23.646Z,102067.66
2018-03-20T20:47:49.612Z,102075.09
2018-03-20T20:50:15.606Z,102074.52
2018-03-20T20:52:41.664Z,102077.22
2018-03-20T20:55:07.665Z,102077.48
2018-03-20T20:57:33.698Z,102085.81
2018-03-20T20:59:59.679Z,102085.05
2018-03-20T21:02:25.656Z,102089.80
2018-03-20T21:04:51.679Z,102093.80
2018-03-20T21:07:17.687Z,102095.66
2018-03-20T21:09:43.667Z,102097.08
2018-03-20T21:12:09.928Z,102099.55
2018-03-20T21:14:35.925Z,102099.61
2018-03-20T21:17:01.910Z,102107.37
2018-03-20T21:19:28.006Z,102108.69
2018-03-20T21:21:54.035Z,102111.61
2018-03-20T21:24:19.950Z,102108.42
2018-03-20T21:26:45.993Z,102109.13
2018-03-20T21:29:11.973Z,102109.88
2018-03-20T21:31:37.977Z,102114.15
2018-03-20T21:34:03.922Z,102111.96
2018-03-20T21:36:29.911Z,102113.57
2018-03-20T21:38:55.880Z,102112.86
2018-03-20T21:41:21.869Z,102112.09
2018-03-20T21:43:47.860Z,102112.41
2018-03-20T21:46:13.824Z,102113.92
2018-03-20T21:48:39.827Z,102122.05
2018-03-20T21:51:05.892Z,102116.30
2018-03-20T21:53:31.841Z,102120.22
2018-03-20T21:55:57.774Z,102128.58
2018-03-20T21:58:23.818Z,102129.55
2018-03-20T22:00:49.784Z,102130.51
2018-03-20T22:03:15.770Z,102132.66
2018-03-20T22:05:41.726Z,102136.45
2018-03-20T22:08:07.694Z,102143.26
2018-03-20T22:10:33.699Z,102146.53
2018-03-20T22:12:59.650Z,102147.47
2018-03-20T22:15:25.660Z,102147.70
2018-03-20T22:17:51.561Z,102149.02
2018-03-20T22:20:17.595Z,102143.32
2018-03-20T22:22:43.574Z,102151.66
2018-03-20T22:25:09.530Z,102151.23
2018-03-20T22:27:35.518Z,102153.31
2018-03-20T22:30:01.484Z,102160.23
2018-03-20T22:32:27.441Z,102155.53
2018-03-20T22:34:53.449Z,102155.11
2018-03-20T22:37:19.427Z,102159.97
2018-03-20T22:39:45.403Z,102159.44
2018-03-20T22:42:11.381Z,102160.53
2018-03-20T22:44:37.341Z,102168.72
2018-03-20T22:47:03.319Z,102164.62
2018-03-20T22:49:29.310Z,102165.13
2018-03-20T22:51:55.267Z,102160.75
2018-03-20T22:54:21.218Z,102166.18
2018-03-20T22:56:47.181Z,102176.55
2018-03-20T22:59:13.130Z,102175.56
2018-03-20T23:01:39.118Z,102174.56
2018-03-20T23:04:05.071Z,102175.76
2018-03-20T23:06:31.077Z,102179.90
2018-03-20T23:08:57.054Z,102174.15
2018-03-20T23:11:23.018Z,102177.38
2018-03-20T23:13:48.970Z,102181.62
2018-03-20T23:16:14.946Z,102183.88
2018-03-20T23:18:40.936Z,102180.62
2018-03-20T23:21:06.911Z,102187.70
2018-03-20T23:23:32.887Z,102183.98
2018-03-20T23:25:58.867Z,102189.61
2018-03-20T23:28:24.833Z,102194.98
2018-03-20T23:30:50.794Z,102193.61
2018-03-20T23:33:16.968Z,102199.87
2018-03-20T23:35:42.980Z,102196.16
2018-03-20T23:38:08.973Z,102203.13
2018-03-20T23:40:34.990Z,102200.52
2018-03-20T23:43:00.996Z,102201.51
2018-03-20T23:45:27.097Z,102201.09
2018-03-20T23:47:53.154Z,102200.64
2018-03-20T23:50:19.106Z,102201.36
2018-03-20T23:52:45.087Z,102205.20
2018-03-20T23:55:11.037Z,102204.59
2018-03-20T23:57:37.019Z,102207.38
